Time;durP1;ratioP1;P1;durP2;ratioP2;P2;SDS_P1;SDS_P2;PMS_P1;PMS_P2;Temp;Humidity;BMP_temperature;BMP_pressure;BME280_temperature;BME280_humidity;BME280_pressure;Samples;Min_cycle;Max_cycle;Signal;HPM_P1;HPM_P2
2019/05/19 00:01:29;;;;;;;2.4;1.3;;;;;;;12.08;63.66211;925.5369;;;;
2019/05/19 00:04:06;;;;;;;10.8;1.9;;;;;;;12.21;62.62598;925.5211;;;;
2019/05/19 00:06:35;;;;;;;4.7;1.4;;;;;;;12.27;62.13086;925.4628;;;;
2019/05/19 00:09:00;;;;;;;2.5;1.5;;;;;;;12.3;62.18066;925.4208;;;;
2019/05/19 00:11:31;;;;;;;3.5;1.5;;;;;;;12.44;62.94727;925.472;;;;
2019/05/19 00:13:56;;;;;;;3.3;1.6;;;;;;;12.48;64.78711;925.4497;;;;
2019/05/19 00:16:22;;;;;;;5;2.4;;;;;;;12.47;66.79297;925.5027;;;;
2019/05/19 00:18:50;;;;;;;3.1;1.8;;;;;;;12.53;66.27539;925.5964;;;;
2019/05/19 00:21:17;;;;;;;2.4;1.7;;;;;;;12.65;64.93945;925.6121;;;;
2019/05/19 00:23:57;;;;;;;5.4;1.6;;;;;;;12.45;64.35938;925.6362;;;;
2019/05/19 00:26:20;;;;;;;3.8;1.4;;;;;;;12.3;64.1543;925.6458;;;;
2019/05/19 00:28:55;;;;;;;2.2;1.4;;;;;;;12.33;63.33301;925.6165;;;;
2019/05/19 00:31:29;;;;;;;3.1;1.4;;;;;;;12.49;62.39258;925.5627;;;;
2019/05/19 00:34:00;;;;;;;2.6;1.5;;;;;;;12.59;61.89063;925.5848;;;;
2019/05/19 00:36:32;;;;;;;2.5;1.3;;;;;;;12.66;62.29004;925.5305;;;;
2019/05/19 00:39:09;;;;;;;2;1.5;;;;;;;12.8;61.59863;925.6019;;;;
2019/05/19 00:41:41;;;;;;;3;1.5;;;;;;;12.82;61.94629;925.5787;;;;
2019/05/19 00:44:11;;;;;;;1.9;1.4;;;;;;;12.88;62.32129;925.5672;;;;
2019/05/19 00:46:43;;;;;;;6.3;1.6;;;;;;;13.03;63.41113;925.5995;;;;
2019/05/19 00:49:18;;;;;;;3.3;1.5;;;;;;;12.93;63.17871;925.5605;;;;
2019/05/19 00:51:43;;;;;;;2.4;1.3;;;;;;;12.64;64.21582;925.4597;;;;
2019/05/19 00:54:13;;;;;;;3.7;1.5;;;;;;;12.77;63.09863;925.4356;;;;
2019/05/19 00:56:43;;;;;;;3.2;1.1;;;;;;;12.63;63.19238;925.4055;;;;
2019/05/19 00:59:17;;;;;;;2.9;1.5;;;;;;;12.58;64.48242;925.407;;;;
2019/05/19 01:01:47;;;;;;;3.4;1.5;;;;;;;12.75;63.4502;925.4169;;;;
2019/05/19 01:04:13;;;;;;;3.2;1.6;;;;;;;12.55;64.96973;925.5257;;;;
2019/05/19 01:06:42;;;;;;;4;1.7;;;;;;;12.47;66.11621;925.5272;;;;
2019/05/19 01:09:06;;;;;;;2.8;1.5;;;;;;;12.42;66.13281;925.5417;;;;
2019/05/19 01:11:41;;;;;;;4.6;1.5;;;;;;;12.34;65.50098;925.5212;;;;
2019/05/19 01:14:12;;;;;;;4.7;1.4;;;;;;;12.44;64.56445;925.5142;;;;
2019/05/19 01:16:39;;;;;;;1.9;1.2;;;;;;;12.47;64.18945;925.5999;;;;
2019/05/19 01:19:19;;;;;;;3.2;1.4;;;;;;;12.39;64.01855;925.55;;;;
2019/05/19 01:21:42;;;;;;;4.4;1.5;;;;;;;12.27;64.49414;925.4492;;;;
2019/05/19 01:24:08;;;;;;;3.2;1.4;;;;;;;12.37;63.49805;925.5017;;;;
2019/05/19 01:26:37;;;;;;;1.8;1.2;;;;;;;12.52;64.47266;925.496;;;;
2019/05/19 01:29:03;;;;;;;4.7;1.5;;;;;;;12.69;64.86426;925.4588;;;;
2019/05/19 01:31:35;;;;;;;3.1;1.7;;;;;;;12.6;64.80469;925.5712;;;;
2019/05/19 01:34:08;;;;;;;2.8;1.5;;;;;;;12.44;67.34082;925.5182;;;;
2019/05/19 01:36:38;;;;;;;4;1.7;;;;;;;12.11;68.67578;925.5499;;;;
2019/05/19 01:39:04;;;;;;;2.9;1.4;;;;;;;12.19;67.55176;925.574;;;;
2019/05/19 01:41:39;;;;;;;4.4;1.5;;;;;;;12.19;66.79688;925.5563;;;;
2019/05/19 01:44:05;;;;;;;5.1;1.5;;;;;;;12.26;67.24219;925.5531;;;;
2019/05/19 01:46:32;;;;;;;4;1.5;;;;;;;12.18;67.44727;925.5542;;;;
2019/05/19 01:49:02;;;;;;;4;1.4;;;;;;;12.18;66.75977;925.5926;;;;
2019/05/19 01:51:38;;;;;;;3.9;1.6;;;;;;;12.13;67.93359;925.4833;;;;
2019/05/19 01:53:58;;;;;;;2.9;1.4;;;;;;;12.13;67.39453;925.4793;;;;
2019/05/19 01:56:30;;;;;;;4.4;1.7;;;;;;;12.1;66.80566;925.5636;;;;
2019/05/19 01:58:55;;;;;;;3.3;1.6;;;;;;;12.02;67.20508;925.5482;;;;
2019/05/19 02:01:20;;;;;;;4;1.6;;;;;;;12.07;66.7666;925.5457;;;;
2019/05/19 02:04:04;;;;;;;2.6;1.5;;;;;;;12.15;66.53809;925.5148;;;;
2019/05/19 02:06:36;;;;;;;2.8;1.3;;;;;;;11.99;66.76563;925.5978;;;;
2019/05/19 02:09:07;;;;;;;2.9;1.3;;;;;;;11.98;66.82227;925.6115;;;;
2019/05/19 02:11:33;;;;;;;4.4;1.3;;;;;;;12;67.07715;925.6774;;;;
2019/05/19 02:14:00;;;;;;;3.6;1.4;;;;;;;12.07;67.47656;925.6733;;;;
2019/05/19 02:16:29;;;;;;;2.8;1.7;;;;;;;12.06;68.2998;925.6703;;;;
2019/05/19 02:18:59;;;;;;;3.7;1.4;;;;;;;11.6;69.31543;925.6908;;;;
2019/05/19 02:21:33;;;;;;;2.3;1.5;;;;;;;11.72;68.49902;925.7148;;;;
2019/05/19 02:24:06;;;;;;;4;1.4;;;;;;;11.76;68.49219;925.7062;;;;
2019/05/19 02:26:39;;;;;;;3.4;1.5;;;;;;;11.97;67.06055;925.7792;;;;
2019/05/19 02:29:09;;;;;;;4.3;1.5;;;;;;;12.12;66.6582;925.7827;;;;
2019/05/19 02:31:34;;;;;;;2.8;1.5;;;;;;;11.6;68.04492;925.8566;;;;
2019/05/19 02:34:08;;;;;;;2.4;1.4;;;;;;;11.49;68.48535;925.8016;;;;
2019/05/19 02:36:41;;;;;;;3.4;1.4;;;;;;;11.26;69.10156;925.7774;;;;
2019/05/19 02:39:20;;;;;;;2.8;1.5;;;;;;;11.22;70.69531;925.8672;;;;
2019/05/19 02:41:48;;;;;;;3.4;1.5;;;;;;;11.27;70.4873;925.861;;;;
2019/05/19 02:44:15;;;;;;;2.2;1.5;;;;;;;11.47;68.99707;925.822;;;;
2019/05/19 02:46:41;;;;;;;1.7;1.5;;;;;;;11.55;68.58691;925.7904;;;;
2019/05/19 02:49:12;;;;;;;1.9;1.4;;;;;;;11.52;69.21094;925.8323;;;;
2019/05/19 02:51:39;;;;;;;3.4;1.4;;;;;;;11.36;69.75781;925.8167;;;;
2019/05/19 02:54:09;;;;;;;3.7;2;;;;;;;11.43;70.02148;925.8805;;;;
2019/05/19 02:56:34;;;;;;;5.2;1.7;;;;;;;11.53;69.44043;925.9286;;;;
2019/05/19 02:59:06;;;;;;;4.4;1.6;;;;;;;11.54;68.41211;925.8727;;;;
2019/05/19 03:01:59;;;;;;;4.2;1.6;;;;;;;11.6;69.0293;925.8909;;;;
2019/05/19 03:04:03;;;;;;;4;1.7;;;;;;;11.66;69.35938;925.99;;;;
2019/05/19 03:06:34;;;;;;;3.7;1.8;;;;;;;11.78;68.25586;925.8948;;;;
2019/05/19 03:08:57;;;;;;;3.3;1.7;;;;;;;11.79;68.00684;926.0042;;;;
2019/05/19 03:11:29;;;;;;;2.1;1.5;;;;;;;11.87;67.68652;925.9659;;;;
2019/05/19 03:14:02;;;;;;;3.6;1.9;;;;;;;11.59;69.53223;925.9891;;;;
2019/05/19 03:16:34;;;;;;;2.9;1.8;;;;;;;11.52;69.44043;926.0316;;;;
2019/05/19 03:19:09;;;;;;;4.9;2.3;;;;;;;11.41;69.61621;925.998;;;;
2019/05/19 03:21:28;;;;;;;3.6;1.8;;;;;;;11.53;69.62402;926.0267;;;;
2019/05/19 03:23:54;;;;;;;2.5;1.9;;;;;;;11.61;69.21387;926.017;;;;
2019/05/19 03:26:25;;;;;;;6.2;1.8;;;;;;;11.56;68.49707;926.0908;;;;
2019/05/19 03:28:56;;;;;;;7;1.9;;;;;;;11.62;68.87305;926.0711;;;;
2019/05/19 03:31:36;;;;;;;5.2;2;;;;;;;11.67;69.05371;926.0225;;;;
2019/05/19 03:34:02;;;;;;;5.4;1.8;;;;;;;11.77;68.16309;926.045;;;;
2019/05/19 03:36:27;;;;;;;5.1;2.1;;;;;;;11.68;69.90234;926.0079;;;;
2019/05/19 03:38:52;;;;;;;4.4;2.2;;;;;;;11.74;69.13086;926.074;;;;
2019/05/19 03:41:24;;;;;;;4.5;2.2;;;;;;;11.58;70.85742;926.084;;;;
2019/05/19 03:43:54;;;;;;;5.8;2.2;;;;;;;11.56;70.30469;926.184;;;;
2019/05/19 03:46:30;;;;;;;4.1;2;;;;;;;11.54;69.86523;926.2083;;;;
2019/05/19 03:48:59;;;;;;;3.7;1.9;;;;;;;11.44;70.2627;926.169;;;;
2019/05/19 03:51:34;;;;;;;3;1.7;;;;;;;11.49;70.375;926.1372;;;;
2019/05/19 03:53:59;;;;;;;4.5;2;;;;;;;11.57;71.50977;926.1616;;;;
2019/05/19 03:56:28;;;;;;;2.7;1.7;;;;;;;11.52;70.53906;926.1718;;;;
2019/05/19 03:59:01;;;;;;;3.5;1.7;;;;;;;11.71;68.96582;926.1543;;;;
2019/05/19 04:02:30;;;;;;;3.6;1.9;;;;;;;11.86;69.35645;926.2172;;;;
2019/05/19 04:05:01;;;;;;;2.4;1.6;;;;;;;11.91;69.76465;926.1567;;;;
2019/05/19 04:07:27;;;;;;;4.2;2.1;;;;;;;12.06;68.44922;926.1809;;;;
2019/05/19 04:09:54;;;;;;;8;2.4;;;;;;;12.15;68.23438;926.1964;;;;
2019/05/19 04:12:21;;;;;;;7.3;2.1;;;;;;;12.16;68.51074;926.1611;;;;
2019/05/19 04:14:51;;;;;;;4.2;1.8;;;;;;;12.36;66.53711;926.1835;;;;
2019/05/19 04:17:26;;;;;;;4.8;2.5;;;;;;;12.49;68.49414;926.2063;;;;
2019/05/19 04:19:58;;;;;;;6.3;2.5;;;;;;;12.64;66.80957;926.2047;;;;
2019/05/19 04:22:21;;;;;;;3.5;2.2;;;;;;;12.87;66.16699;926.1689;;;;
2019/05/19 04:24:53;;;;;;;4.5;2.2;;;;;;;12.94;66.48633;926.1771;;;;
2019/05/19 04:27:28;;;;;;;4.9;2.4;;;;;;;12.96;66.93848;926.2381;;;;
2019/05/19 04:29:48;;;;;;;5.8;3;;;;;;;13.1;68.22363;926.2037;;;;
2019/05/19 04:32:22;;;;;;;4;2.2;;;;;;;13.07;67.24219;926.2508;;;;
2019/05/19 04:34:49;;;;;;;4.2;2.3;;;;;;;13.31;65.85352;926.213;;;;
2019/05/19 04:37:20;;;;;;;4;2.8;;;;;;;13.28;65.28809;926.2592;;;;
2019/05/19 04:39:47;;;;;;;5.2;2.5;;;;;;;13.47;65.76172;926.2148;;;;
2019/05/19 04:42:14;;;;;;;5;2.7;;;;;;;13.6;64.98828;926.2625;;;;
2019/05/19 04:44:47;;;;;;;5.7;2.9;;;;;;;13.6;64.56445;926.3087;;;;
2019/05/19 04:47:21;;;;;;;6;2.9;;;;;;;13.54;63.55469;926.2653;;;;
2019/05/19 04:49:42;;;;;;;4;2.4;;;;;;;13.7;64.19824;926.2453;;;;
2019/05/19 04:52:08;;;;;;;3.4;2.4;;;;;;;13.83;64.31055;926.3058;;;;
2019/05/19 04:54:35;;;;;;;2.8;2;;;;;;;13.8;61.76367;926.2917;;;;
2019/05/19 04:57:01;;;;;;;3.4;2.6;;;;;;;13.82;64.45898;926.3157;;;;
2019/05/19 04:59:33;;;;;;;3.5;2.2;;;;;;;13.97;63.12305;926.2706;;;;
2019/05/19 05:01:58;;;;;;;2.4;2;;;;;;;14.1;62.58887;926.2967;;;;
2019/05/19 05:04:26;;;;;;;3.1;2;;;;;;;13.91;64.41504;926.3002;;;;
2019/05/19 05:06:55;;;;;;;5.2;2.2;;;;;;;14;63.67969;926.2972;;;;
2019/05/19 05:09:23;;;;;;;3.3;2;;;;;;;14.14;63.42285;926.3519;;;;
2019/05/19 05:11:51;;;;;;;7.1;2.3;;;;;;;14.13;65.08008;926.3578;;;;
2019/05/19 05:14:21;;;;;;;2.9;1.9;;;;;;;14.15;63.4834;926.3243;;;;
2019/05/19 05:16:51;;;;;;;3.8;1.9;;;;;;;14.37;61.63574;926.3187;;;;
2019/05/19 05:19:24;;;;;;;4.8;2;;;;;;;14.52;60.40234;926.2996;;;;
2019/05/19 05:21:54;;;;;;;5.9;1.7;;;;;;;14.66;59.9375;926.204;;;;
2019/05/19 05:24:20;;;;;;;4.3;1.8;;;;;;;14.82;59.97168;926.3116;;;;
2019/05/19 05:26:53;;;;;;;3.2;1.7;;;;;;;14.95;59.23926;926.2304;;;;
2019/05/19 05:29:19;;;;;;;3.4;2;;;;;;;14.95;58.27051;926.2521;;;;
2019/05/19 05:31:52;;;;;;;4.7;1.7;;;;;;;14.94;59.33008;926.1939;;;;
2019/05/19 05:34:25;;;;;;;5.8;2;;;;;;;14.66;60.86035;926.209;;;;
2019/05/19 05:36:56;;;;;;;2.3;1.8;;;;;;;14.74;61.31934;926.2068;;;;
2019/05/19 05:39:26;;;;;;;4;1.9;;;;;;;14.73;60.84668;926.1605;;;;
2019/05/19 05:42:03;;;;;;;4.2;1.8;;;;;;;14.97;58.96484;926.1041;;;;
2019/05/19 05:44:47;;;;;;;4.2;1.8;;;;;;;15.24;58.20508;926.0821;;;;
2019/05/19 05:47:26;;;;;;;4.9;1.6;;;;;;;15.68;57.75586;926.08;;;;
2019/05/19 05:49:51;;;;;;;3.9;1.6;;;;;;;15.87;55.42285;926.1097;;;;
2019/05/19 05:52:24;;;;;;;4.6;1.6;;;;;;;17.06;53.25488;926.0594;;;;
2019/05/19 05:54:54;;;;;;;3.3;1.7;;;;;;;18.45;49.48242;926.0034;;;;
2019/05/19 05:57:32;;;;;;;3.8;2.3;;;;;;;19.83;43.71191;926.0897;;;;
2019/05/19 05:59:54;;;;;;;3.1;1.6;;;;;;;20.59;40.98438;926.0258;;;;
2019/05/19 06:02:25;;;;;;;3.6;1.4;;;;;;;21.14;41.94727;926.0356;;;;
2019/05/19 06:04:50;;;;;;;1.9;1.4;;;;;;;21.66;41.02441;926.0547;;;;
2019/05/19 06:07:17;;;;;;;2.6;1.5;;;;;;;21.55;38.56738;926.0324;;;;
2019/05/19 06:09:51;;;;;;;3.4;1.6;;;;;;;21.29;39.25879;925.9824;;;;
2019/05/19 06:12:27;;;;;;;3.3;1.7;;;;;;;20.72;40.37695;926.0268;;;;
2019/05/19 06:14:59;;;;;;;3.5;1.8;;;;;;;19.9;43.78906;926.0355;;;;
2019/05/19 06:17:32;;;;;;;3.4;1.8;;;;;;;20.37;43.04199;925.9817;;;;
2019/05/19 06:20:04;;;;;;;4.2;1.6;;;;;;;19.62;43.01563;926.0349;;;;
2019/05/19 06:22:38;;;;;;;4.4;2;;;;;;;18.8;46.11328;925.9911;;;;
2019/05/19 06:25:01;;;;;;;3.1;1.5;;;;;;;18.41;46.38574;925.9879;;;;
2019/05/19 06:27:35;;;;;;;2.1;1.4;;;;;;;18.42;47.91016;926.0762;;;;
2019/05/19 06:30:09;;;;;;;2.5;1.4;;;;;;;19.42;45.18652;925.9947;;;;
2019/05/19 06:32:46;;;;;;;2.8;1.3;;;;;;;19.6;44.90234;926.0927;;;;
2019/05/19 06:35:14;;;;;;;1.5;1.3;;;;;;;19.86;43.72754;925.9417;;;;
2019/05/19 06:37:43;;;;;;;2.3;1.6;;;;;;;20.01;44.15039;926.0101;;;;
2019/05/19 06:40:10;;;;;;;3.9;1.9;;;;;;;20.67;42.72168;926.0092;;;;
2019/05/19 06:42:50;;;;;;;2.3;1.7;;;;;;;21.45;43.75586;925.8058;;;;
2019/05/19 06:45:19;;;;;;;2.3;1.7;;;;;;;22.78;37.91113;925.9275;;;;
2019/05/19 06:47:51;;;;;;;2.4;1.9;;;;;;;23.28;39.21094;925.8898;;;;
2019/05/19 06:50:21;;;;;;;3.6;1.8;;;;;;;23.01;37.70801;925.8373;;;;
2019/05/19 06:52:54;;;;;;;2.2;1.8;;;;;;;23.42;37.20117;925.8787;;;;
2019/05/19 06:55:24;;;;;;;3.4;1.7;;;;;;;24.21;35.20605;925.7729;;;;
2019/05/19 06:57:50;;;;;;;2.4;1.6;;;;;;;24.14;35.91895;925.8326;;;;
2019/05/19 07:00:28;;;;;;;2.4;1.8;;;;;;;24.05;34.99316;925.8742;;;;
2019/05/19 07:02:55;;;;;;;2.4;1.8;;;;;;;22.88;37.75586;925.8027;;;;
2019/05/19 07:05:23;;;;;;;2.3;1.8;;;;;;;22.64;37.64063;925.8251;;;;
2019/05/19 07:07:56;;;;;;;2.3;1.8;;;;;;;22.37;38.41602;925.8719;;;;
2019/05/19 07:10:23;;;;;;;3.2;1.9;;;;;;;21.38;41.71289;925.7866;;;;
2019/05/19 07:13:04;;;;;;;2.4;2;;;;;;;20.22;45.08105;925.7889;;;;
2019/05/19 07:15:29;;;;;;;2.6;2;;;;;;;20.01;45.59668;925.7477;;;;
2019/05/19 07:18:03;;;;;;;4.1;2;;;;;;;19.77;45.61914;925.7614;;;;
2019/05/19 07:20:30;;;;;;;3.3;2;;;;;;;19.94;44.55176;925.7194;;;;
2019/05/19 07:23:05;;;;;;;2.6;2.1;;;;;;;20.03;44.375;925.6578;;;;
2019/05/19 07:25:30;;;;;;;2.2;1.9;;;;;;;20.78;40.48633;925.669;;;;
2019/05/19 07:28:00;;;;;;;3.5;1.9;;;;;;;20.88;41.05664;925.7185;;;;
2019/05/19 07:30:36;;;;;;;2.6;1.9;;;;;;;22.09;39.39941;925.5839;;;;
2019/05/19 07:33:07;;;;;;;3;1.9;;;;;;;22.43;37.41211;925.6067;;;;
2019/05/19 07:35:35;;;;;;;2.2;1.7;;;;;;;22.64;37.34668;925.6434;;;;
2019/05/19 07:38:01;;;;;;;1.8;1.6;;;;;;;23.83;35.90527;925.5639;;;;
2019/05/19 07:40:27;;;;;;;1.9;1.7;;;;;;;24.18;36.12207;925.519;;;;
2019/05/19 07:43:05;;;;;;;2.2;1.9;;;;;;;24.3;35.95508;925.5731;;;;
2019/05/19 07:45:37;;;;;;;2.7;2.2;;;;;;;23.16;35.5459;925.5797;;;;
2019/05/19 07:48:00;;;;;;;2.1;1.9;;;;;;;23.78;34.58398;925.6155;;;;
2019/05/19 07:50:28;;;;;;;3.7;2.2;;;;;;;23.55;35.6709;925.5505;;;;
2019/05/19 07:53:04;;;;;;;3.7;2.4;;;;;;;22.84;37.22266;925.5115;;;;
2019/05/19 07:55:39;;;;;;;3.3;2.4;;;;;;;22.28;39.27637;925.5533;;;;
2019/05/19 07:58:11;;;;;;;3.1;2.3;;;;;;;21.08;44.9707;925.5609;;;;
2019/05/19 08:00:48;;;;;;;2.5;2;;;;;;;21.01;43.34961;925.5506;;;;
2019/05/19 08:03:19;;;;;;;4.3;2.3;;;;;;;20.47;44.44238;925.5776;;;;
2019/05/19 08:05:50;;;;;;;3.1;2.2;;;;;;;19.87;43.64648;925.5488;;;;
2019/05/19 08:08:16;;;;;;;2.5;2.1;;;;;;;19.83;44.7041;925.5934;;;;
2019/05/19 08:10:44;;;;;;;4.1;2.3;;;;;;;19.55;48.58008;925.606;;;;
2019/05/19 08:13:17;;;;;;;2.8;2;;;;;;;19.23;46.64648;925.6227;;;;
2019/05/19 08:15:47;;;;;;;2.5;2.3;;;;;;;19.22;46.79688;925.6328;;;;
2019/05/19 08:18:17;;;;;;;4.2;2.2;;;;;;;19.55;46.2959;925.6306;;;;
2019/05/19 08:20:47;;;;;;;4;2.2;;;;;;;19.42;46.64355;925.6202;;;;
2019/05/19 08:23:19;;;;;;;3.7;2.4;;;;;;;19.71;46.06836;925.5938;;;;
2019/05/19 08:25:44;;;;;;;4.2;2.4;;;;;;;19.97;45.41797;925.5505;;;;
2019/05/19 08:28:15;;;;;;;3;2.3;;;;;;;19.96;46.05859;925.5826;;;;
2019/05/19 08:30:46;;;;;;;3.3;2.1;;;;;;;20.29;45.29883;925.6144;;;;
2019/05/19 08:33:12;;;;;;;2.6;2;;;;;;;20.5;43.79004;925.5742;;;;
2019/05/19 08:35:40;;;;;;;3.6;2.1;;;;;;;20.77;43.02246;925.5756;;;;
2019/05/19 08:38:07;;;;;;;2.2;1.9;;;;;;;20.79;43.51563;925.5242;;;;
2019/05/19 08:40:32;;;;;;;2.8;2;;;;;;;20.53;44.22559;925.4957;;;;
2019/05/19 08:43:13;;;;;;;2.2;1.8;;;;;;;20.5;44.63184;925.5044;;;;
2019/05/19 08:45:37;;;;;;;3.9;1.8;;;;;;;20.14;46.8584;925.5083;;;;
2019/05/19 08:48:08;;;;;;;3.6;1.8;;;;;;;20.43;48.19727;925.5033;;;;
2019/05/19 08:50:32;;;;;;;3.1;1.8;;;;;;;20.45;46.50781;925.4558;;;;
2019/05/19 08:53:03;;;;;;;2.8;1.5;;;;;;;20.49;46.04492;925.433;;;;
2019/05/19 08:55:37;;;;;;;1.9;1.5;;;;;;;20.49;44.92285;925.3722;;;;
2019/05/19 08:58:05;;;;;;;2.9;1.7;;;;;;;20.88;43.5127;925.4196;;;;
2019/05/19 09:00:30;;;;;;;2.9;1.5;;;;;;;20.9;44.80078;925.3822;;;;
2019/05/19 09:02:57;;;;;;;2.9;1.8;;;;;;;21.01;46.0166;925.3474;;;;
2019/05/19 09:05:25;;;;;;;2;1.8;;;;;;;20.71;44.60547;925.3133;;;;
2019/05/19 09:07:59;;;;;;;2.3;2;;;;;;;20.45;46.98535;925.2707;;;;
2019/05/19 09:10:31;;;;;;;3.7;2;;;;;;;20.38;46.99023;925.2859;;;;
2019/05/19 09:12:55;;;;;;;3;2.1;;;;;;;20.42;47.39063;925.2803;;;;
2019/05/19 09:15:21;;;;;;;4.1;1.9;;;;;;;20.08;47.83301;925.2888;;;;
2019/05/19 09:17:58;;;;;;;2;1.8;;;;;;;19.99;47.43945;925.2367;;;;
2019/05/19 09:20:26;;;;;;;3.6;2;;;;;;;19.42;49.11328;925.1857;;;;
2019/05/19 09:22:58;;;;;;;3.6;2.1;;;;;;;19.4;50.8125;925.2138;;;;
2019/05/19 09:25:30;;;;;;;2.7;1.8;;;;;;;19.85;49.27734;925.1904;;;;
2019/05/19 09:28:01;;;;;;;2.1;1.6;;;;;;;20.47;47.47852;925.1002;;;;
2019/05/19 09:30:32;;;;;;;2.1;1.7;;;;;;;20.73;46.53613;925.0936;;;;
2019/05/19 09:33:01;;;;;;;3.9;1.8;;;;;;;20.93;46.54688;925.0706;;;;
2019/05/19 09:35:31;;;;;;;2.4;1.7;;;;;;;21.53;42.60547;925.007;;;;
2019/05/19 09:38:02;;;;;;;3.3;1.6;;;;;;;21.48;43.00977;925.0506;;;;
2019/05/19 09:40:27;;;;;;;2.5;1.6;;;;;;;21.74;43.05859;924.9393;;;;
2019/05/19 09:43:01;;;;;;;2;1.6;;;;;;;22.04;43.38086;924.9907;;;;
2019/05/19 09:45:31;;;;;;;2.2;1.6;;;;;;;22.43;41.41309;924.9317;;;;
2019/05/19 09:48:06;;;;;;;4.1;1.5;;;;;;;22.07;42.92676;924.9339;;;;
2019/05/19 09:50:39;;;;;;;1.7;1.4;;;;;;;22.79;41.08203;924.9769;;;;
2019/05/19 09:53:11;;;;;;;3.3;1.5;;;;;;;23.27;41.41992;924.9372;;;;
2019/05/19 09:55:29;;;;;;;1.9;1.5;;;;;;;23.67;42.74023;924.9143;;;;
2019/05/19 09:57:55;;;;;;;1.9;1.3;;;;;;;24.14;39.18066;924.8878;;;;
2019/05/19 10:00:22;;;;;;;2.6;1.2;;;;;;;24.6;37.61816;924.8478;;;;
2019/05/19 10:02:54;;;;;;;1.3;1;;;;;;;25.05;37.52637;924.8621;;;;
2019/05/19 10:05:22;;;;;;;1.7;1.3;;;;;;;25.36;36.69043;924.8297;;;;
2019/05/19 10:07:56;;;;;;;2.1;1;;;;;;;25.99;33.67969;924.8321;;;;
2019/05/19 10:10:17;;;;;;;5.3;1.1;;;;;;;25.55;35.70215;924.7885;;;;
2019/05/19 10:12:44;;;;;;;4.1;1.1;;;;;;;25.22;35.93457;924.6814;;;;
2019/05/19 10:15:17;;;;;;;1.8;0.9;;;;;;;25.26;34.8877;924.6998;;;;
2019/05/19 10:17:50;;;;;;;1.9;1;;;;;;;25.81;35.91211;924.6909;;;;
2019/05/19 10:20:19;;;;;;;3.9;1.1;;;;;;;25.61;36.30957;924.6434;;;;
2019/05/19 10:22:45;;;;;;;1.9;1.1;;;;;;;25.09;37.05859;924.6116;;;;
2019/05/19 10:25:13;;;;;;;2.3;1;;;;;;;25.95;33.5459;924.5231;;;;
2019/05/19 10:27:38;;;;;;;2;0.9;;;;;;;25.48;36.27441;924.5267;;;;
2019/05/19 10:30:03;;;;;;;3;0.9;;;;;;;24.41;37.81445;924.4508;;;;
2019/05/19 10:32:31;;;;;;;1.6;1;;;;;;;24.58;37.50977;924.5093;;;;
2019/05/19 10:35:01;;;;;;;1.7;1.1;;;;;;;25.15;38.77441;924.4536;;;;
2019/05/19 10:37:33;;;;;;;3.4;1.1;;;;;;;25.59;39.13086;924.5156;;;;
2019/05/19 10:40:06;;;;;;;3.1;1.1;;;;;;;25.31;37.57129;924.4257;;;;
2019/05/19 10:42:32;;;;;;;4.2;1;;;;;;;24.82;39.31152;924.4724;;;;
2019/05/19 10:45:04;;;;;;;1.9;1.1;;;;;;;25.06;37.25586;924.4345;;;;
2019/05/19 10:47:34;;;;;;;2.9;1.1;;;;;;;26;37.64063;924.4222;;;;
2019/05/19 10:50:03;;;;;;;2.4;1.2;;;;;;;26.52;35.73242;924.4291;;;;
2019/05/19 10:52:33;;;;;;;1.5;1.1;;;;;;;27.28;33.90625;924.5055;;;;
2019/05/19 10:55:03;;;;;;;2.3;1.2;;;;;;;27.47;33.57617;924.4889;;;;
2019/05/19 10:57:33;;;;;;;2.7;1.1;;;;;;;27.37;34.1748;924.3747;;;;
2019/05/19 11:00:06;;;;;;;3.7;1.1;;;;;;;27.56;32.3252;924.3318;;;;
2019/05/19 11:02:36;;;;;;;2.1;1;;;;;;;26.29;34.79004;924.3276;;;;
2019/05/19 11:05:02;;;;;;;1.5;0.9;;;;;;;25.72;38.89453;924.2753;;;;
2019/05/19 11:07:27;;;;;;;3.6;1.1;;;;;;;25.32;36.42773;924.2197;;;;
2019/05/19 11:09:59;;;;;;;1.4;1;;;;;;;24.8;35.79492;924.2014;;;;
2019/05/19 11:12:38;;;;;;;4.8;1.2;;;;;;;23.64;40.47852;924.2081;;;;
2019/05/19 11:15:03;;;;;;;2;1.2;;;;;;;23.51;40.16113;924.1385;;;;
2019/05/19 11:17:34;;;;;;;4.3;1.2;;;;;;;23.49;42.22852;924.1476;;;;
2019/05/19 11:20:02;;;;;;;1.3;1;;;;;;;23.85;40.94531;924.0654;;;;
2019/05/19 11:22:30;;;;;;;1.7;1.2;;;;;;;23.99;41.59277;924.1408;;;;
2019/05/19 11:25:02;;;;;;;1.4;1.1;;;;;;;24.19;39.66797;924.1369;;;;
2019/05/19 11:27:38;;;;;;;3.4;1.2;;;;;;;23.78;40.96191;924.1249;;;;
2019/05/19 11:29:56;;;;;;;2.4;1.1;;;;;;;24.76;38.6582;924.0349;;;;
2019/05/19 11:32:33;;;;;;;2.5;1.1;;;;;;;24.45;39.4209;924.1228;;;;
2019/05/19 11:35:01;;;;;;;1.9;1.1;;;;;;;23.88;38.85254;924.1552;;;;
2019/05/19 11:37:28;;;;;;;2.8;1;;;;;;;23.78;39.16113;924.1249;;;;
2019/05/19 11:39:59;;;;;;;1.8;1.2;;;;;;;23.87;39.27539;924.1525;;;;
2019/05/19 11:42:28;;;;;;;4.1;1.1;;;;;;;23.67;39.8457;924.1783;;;;
2019/05/19 11:45:05;;;;;;;2.5;1;;;;;;;24.03;40.07813;924.1293;;;;
2019/05/19 11:47:29;;;;;;;1.7;1;;;;;;;24.73;38.45508;924.1002;;;;
2019/05/19 11:49:55;;;;;;;1.1;0.9;;;;;;;25.28;37.32129;924.0882;;;;
2019/05/19 11:52:27;;;;;;;1.3;1;;;;;;;25.06;36.19434;924.0917;;;;
2019/05/19 11:54:58;;;;;;;3.1;1.1;;;;;;;25.13;36.51758;923.9975;;;;
2019/05/19 11:57:30;;;;;;;1.9;1.1;;;;;;;25.15;36.02441;924.0457;;;;
2019/05/19 11:59:57;;;;;;;2.1;1;;;;;;;25.63;35.60156;924.0483;;;;
2019/05/19 12:02:26;;;;;;;2.7;1;;;;;;;25.47;36.19141;924.0639;;;;
2019/05/19 12:04:56;;;;;;;2.3;1.1;;;;;;;25.46;36.83984;924.0822;;;;
2019/05/19 12:07:33;;;;;;;2.6;0.9;;;;;;;25.92;35.67188;924.1019;;;;
2019/05/19 12:10:04;;;;;;;1.2;1;;;;;;;25.91;34.8916;924.0901;;;;
2019/05/19 12:12:31;;;;;;;1.2;0.9;;;;;;;25.71;35.3125;924.1176;;;;
2019/05/19 12:15:03;;;;;;;2.1;0.9;;;;;;;25.01;35.92969;924.1086;;;;
2019/05/19 12:17:38;;;;;;;1.6;1.1;;;;;;;24.46;37.91309;924.1646;;;;
2019/05/19 12:20:12;;;;;;;1.2;1;;;;;;;23.53;39.59766;924.1658;;;;
2019/05/19 12:22:44;;;;;;;1.4;0.9;;;;;;;23.38;39.38477;924.1992;;;;
2019/05/19 12:25:14;;;;;;;1.7;1.1;;;;;;;22.77;40.72754;924.1276;;;;
2019/05/19 12:27:41;;;;;;;1.1;1;;;;;;;22.26;43.00293;924.1778;;;;
2019/05/19 12:30:07;;;;;;;85.2;2.7;;;;;;;21.89;45.35742;924.2548;;;;
2019/05/19 12:32:35;;;;;;;8.5;1.7;;;;;;;21.26;51.01563;924.2682;;;;
2019/05/19 12:35:03;;;;;;;4.4;1.3;;;;;;;19.57;54.34082;924.2458;;;;
2019/05/19 12:37:36;;;;;;;1.7;1.2;;;;;;;19.54;54.72266;924.168;;;;
2019/05/19 12:40:03;;;;;;;2.4;1.3;;;;;;;19.61;55.81445;924.1534;;;;
2019/05/19 12:42:26;;;;;;;1.8;1.1;;;;;;;19.48;55.91406;924.204;;;;
2019/05/19 12:44:59;;;;;;;3;1.3;;;;;;;19.49;58.16504;924.2146;;;;
2019/05/19 12:47:37;;;;;;;4;1.4;;;;;;;19.6;60.63965;924.2541;;;;
2019/05/19 12:50:12;;;;;;;3.1;1.8;;;;;;;19.27;62.9707;924.2313;;;;
2019/05/19 12:52:37;;;;;;;2;1.4;;;;;;;19.05;63.95117;924.2853;;;;
2019/05/19 12:55:08;;;;;;;6.9;2;;;;;;;18.51;64.41992;924.3137;;;;
2019/05/19 12:57:43;;;;;;;2.3;1.4;;;;;;;18.24;63.48633;924.3273;;;;
2019/05/19 13:00:27;;;;;;;2.3;1.3;;;;;;;18.28;63.14258;924.3386;;;;
2019/05/19 13:02:56;;;;;;;2.7;1.6;;;;;;;18.37;64.58594;924.3984;;;;
2019/05/19 13:05:27;;;;;;;2.2;1.6;;;;;;;18.4;63.75293;924.4286;;;;
2019/05/19 13:07:52;;;;;;;3.9;1.7;;;;;;;18.11;67.23047;924.4841;;;;
2019/05/19 13:10:23;;;;;;;3.3;1.6;;;;;;;17.49;67.56543;924.4056;;;;
2019/05/19 13:12:55;;;;;;;3.3;1.6;;;;;;;16.82;68.81934;924.4753;;;;
2019/05/19 13:15:24;;;;;;;3.7;1.8;;;;;;;16.35;70.30469;924.4855;;;;
2019/05/19 13:17:53;;;;;;;3.7;1.9;;;;;;;16.42;71.37109;924.4533;;;;
2019/05/19 13:20:24;;;;;;;4.4;1.9;;;;;;;16.41;70.0957;924.3691;;;;
2019/05/19 13:23:11;;;;;;;3.7;2;;;;;;;16.53;68.1123;924.4383;;;;
2019/05/19 13:25:33;;;;;;;5.1;2;;;;;;;16.2;70.30566;924.4669;;;;
2019/05/19 13:28:03;;;;;;;4.2;2.1;;;;;;;16.18;70.19922;924.4098;;;;
2019/05/19 13:30:35;;;;;;;7.2;2.3;;;;;;;16.5;70.20313;924.3912;;;;
2019/05/19 13:32:58;;;;;;;6.2;1.8;;;;;;;16.61;69.6416;924.4314;;;;
2019/05/19 13:35:33;;;;;;;3.2;1.8;;;;;;;16.47;69.00488;924.4341;;;;
2019/05/19 13:37:57;;;;;;;4.6;1.8;;;;;;;16.24;68.25293;924.4708;;;;
2019/05/19 13:40:35;;;;;;;2.5;1.8;;;;;;;16.46;68.49609;924.4311;;;;
2019/05/19 13:43:01;;;;;;;3;1.7;;;;;;;16.56;69.48242;924.3658;;;;
2019/05/19 13:45:30;;;;;;;2.7;1.3;;;;;;;16.31;70.25391;924.3276;;;;
2019/05/19 13:47:58;;;;;;;4;1.6;;;;;;;16.21;72.08887;924.3245;;;;
2019/05/19 13:50:30;;;;;;;3.3;1.8;;;;;;;16.09;73.45605;924.3712;;;;
2019/05/19 13:52:54;;;;;;;2.7;1.6;;;;;;;15.92;74.44531;924.3596;;;;
2019/05/19 13:55:31;;;;;;;4.4;1.9;;;;;;;16.09;73.05078;924.2723;;;;
2019/05/19 13:57:58;;;;;;;3.3;1.8;;;;;;;16.14;72.09961;924.2996;;;;
2019/05/19 14:00:30;;;;;;;3.9;2.1;;;;;;;16.15;69.36035;924.3329;;;;
2019/05/19 14:03:04;;;;;;;5.6;2.7;;;;;;;16.49;69.24121;924.4486;;;;
2019/05/19 14:05:23;;;;;;;6;1.9;;;;;;;16.77;69.66797;924.6755;;;;
2019/05/19 14:07:49;;;;;;;3.8;1.8;;;;;;;16.84;70.98633;924.863;;;;
2019/05/19 14:10:19;;;;;;;4.6;2.1;;;;;;;16.67;70.28711;924.9942;;;;
2019/05/19 14:12:47;;;;;;;9.5;2.4;;;;;;;17.01;69.48633;925.2885;;;;
2019/05/19 14:15:18;;;;;;;17.5;4.9;;;;;;;16.31;75.59766;925.2452;;;;
2019/05/19 14:17:47;;;;;;;6.8;1.8;;;;;;;16.14;65.18359;925.1219;;;;
2019/05/19 14:20:12;;;;;;;11.9;4.1;;;;;;;15.91;77.25195;925.0524;;;;
2019/05/19 14:22:37;;;;;;;10.6;4.2;;;;;;;15.48;79.62305;925.0575;;;;
2019/05/19 14:25:17;;;;;;;10.2;2.7;;;;;;;14.74;80.5625;925.0097;;;;
2019/05/19 14:27:43;;;;;;;6.3;2.2;;;;;;;14.68;78.61426;925.0099;;;;
2019/05/19 14:30:16;;;;;;;7;2.9;;;;;;;14.96;76.09375;925.0751;;;;
2019/05/19 14:32:46;;;;;;;6.7;3;;;;;;;14.85;77.03027;925.0303;;;;
2019/05/19 14:35:10;;;;;;;12.3;3.7;;;;;;;14.7;77.76563;925.1262;;;;
2019/05/19 14:37:38;;;;;;;12.1;3.8;;;;;;;14.71;79.99219;925.0483;;;;
2019/05/19 14:40:03;;;;;;;11.6;4.2;;;;;;;14.97;76.86621;925.0742;;;;
2019/05/19 14:42:49;;;;;;;12;5;;;;;;;14.84;77.69824;925.0352;;;;